createdAt,value
2023-05-18T00:01:34.061Z,59.20
2023-05-18T00:04:04.426Z,59.44
2023-05-18T00:06:33.813Z,58.50
2023-05-18T00:09:03.164Z,58.96
2023-05-18T00:11:33.704Z,59.02
2023-05-18T00:14:03.524Z,59.35
2023-05-18T00:16:35.560Z,59.19
2023-05-18T00:19:05.346Z,59.11
2023-05-18T00:21:35.791Z,58.81
2023-05-18T00:24:05.203Z,58.59
2023-05-18T00:26:34.568Z,58.56
2023-05-18T00:29:03.977Z,59.26
2023-05-18T00:31:38.687Z,58.45
2023-05-18T00:34:08.203Z,59.04
2023-05-18T00:36:38.332Z,59.07
2023-05-18T00:39:09.187Z,58.85
2023-05-18T00:41:38.878Z,58.58
2023-05-18T00:44:08.558Z,59.03
2023-05-18T00:46:41.679Z,58.91
2023-05-18T00:49:11.428Z,58.83
2023-05-18T00:51:42.044Z,58.71
2023-05-18T00:54:11.568Z,58.41
2023-05-18T00:56:43.129Z,58.24
2023-05-18T00:59:13.157Z,58.60
2023-05-18T01:01:46.862Z,58.90
2023-05-18T01:04:16.864Z,59.08
2023-05-18T01:06:46.773Z,58.97
2023-05-18T01:09:17.976Z,58.83
2023-05-18T01:11:58.690Z,58.88
2023-05-18T01:14:33.255Z,58.62
2023-05-18T01:17:13.411Z,58.92
2023-05-18T01:20:08.934Z,59.20
2023-05-18T01:22:49.588Z,58.43
2023-05-18T01:25:30.025Z,59.21
2023-05-18T01:28:06.665Z,58.81
2023-05-18T01:30:37.197Z,58.93
2023-05-18T01:33:10.175Z,58.78
2023-05-18T01:35:41.782Z,58.24
2023-05-18T01:38:11.215Z,57.97
2023-05-18T01:40:50.855Z,58.86
2023-05-18T01:43:29.534Z,58.99
2023-05-18T01:46:04.210Z,58.75
2023-05-18T01:48:37.286Z,58.74
2023-05-18T01:51:09.143Z,58.79
2023-05-18T01:53:45.846Z,58.65
2023-05-18T01:56:17.183Z,58.68
2023-05-18T01:58:50.524Z,58.51
2023-05-18T02:01:23.009Z,58.41
2023-05-18T02:03:53.848Z,59.11
2023-05-18T02:06:23.495Z,59.35
2023-05-18T02:08:53.825Z,58.99
2023-05-18T02:11:23.311Z,58.51
2023-05-18T02:13:55.317Z,58.95
2023-05-18T02:16:24.861Z,59.10
2023-05-18T02:18:54.819Z,59.06
2023-05-18T02:21:26.271Z,59.31
2023-05-18T02:23:55.883Z,58.98
2023-05-18T02:26:25.309Z,58.75
2023-05-18T02:28:57.270Z,58.58
2023-05-18T02:31:29.679Z,58.17
2023-05-18T02:33:59.164Z,58.23
2023-05-18T02:36:28.578Z,58.44
2023-05-18T02:38:58.461Z,58.39
2023-05-18T02:41:27.880Z,58.58
2023-05-18T02:43:59.935Z,58.71
2023-05-18T02:46:29.475Z,58.72
2023-05-18T02:48:59.323Z,58.75
2023-05-18T02:51:30.074Z,58.60
2023-05-18T02:53:59.787Z,58.73
2023-05-18T02:56:29.185Z,58.09
2023-05-18T02:59:01.248Z,58.60
2023-05-18T03:01:30.811Z,58.31
2023-05-18T03:04:00.495Z,58.21
2023-05-18T03:06:30.718Z,58.12
2023-05-18T03:09:00.242Z,58.74
2023-05-18T03:11:29.688Z,58.76
2023-05-18T03:14:01.670Z,58.58
2023-05-18T03:16:31.047Z,58.39
2023-05-18T03:19:02.515Z,58.10
2023-05-18T03:21:33.920Z,58.06
2023-05-18T03:24:03.491Z,57.71
2023-05-18T03:26:33.027Z,57.98
2023-05-18T03:29:05.151Z,57.91
2023-05-18T03:31:34.683Z,57.91
2023-05-18T03:34:04.134Z,57.71
2023-05-18T03:36:33.547Z,57.88
2023-05-18T03:39:02.963Z,58.28
2023-05-18T03:41:32.583Z,58.24
2023-05-18T03:44:01.949Z,58.15
2023-05-18T03:46:34.082Z,58.38
2023-05-18T03:49:04.996Z,58.29
2023-05-18T03:51:34.660Z,58.27
2023-05-18T03:54:04.129Z,58.33
2023-05-18T03:56:33.939Z,58.89
2023-05-18T03:59:03.546Z,58.43
2023-05-18T04:01:36.340Z,59.02
2023-05-18T04:04:05.906Z,58.65
2023-05-18T04:06:35.579Z,58.77
2023-05-18T04:09:05.017Z,58.74
2023-05-18T04:11:34.439Z,58.17
2023-05-18T04:14:03.804Z,58.33
2023-05-18T04:16:35.806Z,58.89
2023-05-18T04:19:08.244Z,58.65
2023-05-18T04:21:38.094Z,58.87
2023-05-18T04:24:08.756Z,59.01
2023-05-18T04:26:38.729Z,58.42
2023-05-18T04:29:08.130Z,58.73
2023-05-18T04:31:42.777Z,58.88
2023-05-18T04:34:13.399Z,60.02
2023-05-18T04:36:44.025Z,59.49
2023-05-18T04:39:13.763Z,59.13
2023-05-18T04:41:43.181Z,59.09
2023-05-18T04:44:14.259Z,58.63
2023-05-18T04:46:47.568Z,59.01
2023-05-18T04:49:17.104Z,59.47
2023-05-18T04:51:47.096Z,59.05
2023-05-18T04:54:16.500Z,59.21
2023-05-18T04:56:47.427Z,59.64
2023-05-18T04:59:16.840Z,58.96
2023-05-18T05:01:49.238Z,58.79
2023-05-18T05:04:18.645Z,59.02
2023-05-18T05:06:48.018Z,58.84
2023-05-18T05:09:17.518Z,58.34
2023-05-18T05:11:47.113Z,58.91
2023-05-18T05:14:16.803Z,58.92
2023-05-18T05:16:48.875Z,58.94
2023-05-18T05:19:18.260Z,59.86
2023-05-18T05:21:48.581Z,59.98
2023-05-18T05:24:18.090Z,59.60
2023-05-18T05:26:47.516Z,59.31
2023-05-18T05:29:17.057Z,59.39
2023-05-18T05:31:49.070Z,58.89
2023-05-18T05:34:18.562Z,59.47
2023-05-18T05:36:47.902Z,59.45
2023-05-18T05:39:17.477Z,58.72
2023-05-18T05:41:46.903Z,59.23
2023-05-18T05:44:16.283Z,59.75
2023-05-18T05:46:46.056Z,59.14
2023-05-18T05:49:18.119Z,59.18
2023-05-18T05:51:47.614Z,59.18
2023-05-18T05:54:17.629Z,59.30
2023-05-18T05:56:47.290Z,59.36
2023-05-18T05:59:16.639Z,59.57
2023-05-18T06:01:46.212Z,58.97
2023-05-18T06:04:18.636Z,58.96
2023-05-18T06:06:48.103Z,59.00
2023-05-18T06:09:17.757Z,59.14
2023-05-18T06:11:47.314Z,58.65
2023-05-18T06:14:16.776Z,58.82
2023-05-18T06:16:46.382Z,58.56
2023-05-18T06:19:19.313Z,58.64
2023-05-18T06:21:48.804Z,58.70
2023-05-18T06:24:18.187Z,59.21
2023-05-18T06:26:48.013Z,60.43
2023-05-18T06:29:17.441Z,60.28
2023-05-18T06:31:47.002Z,60.12
2023-05-18T06:34:19.012Z,59.58
2023-05-18T06:36:48.636Z,60.54
2023-05-18T06:39:18.089Z,60.70
2023-05-18T06:41:47.802Z,60.32
2023-05-18T06:44:17.161Z,59.98
2023-05-18T06:46:46.626Z,60.12
2023-05-18T06:49:16.231Z,60.28
2023-05-18T06:51:48.195Z,60.34
2023-05-18T06:54:17.610Z,60.20
2023-05-18T06:56:47.338Z,60.05
2023-05-18T06:59:16.684Z,60.03
2023-05-18T07:01:46.304Z,60.45
2023-05-18T07:04:16.438Z,59.71
2023-05-18T07:06:49.052Z,59.62
2023-05-18T07:09:18.526Z,59.94
2023-05-18T07:11:48.164Z,60.06
2023-05-18T07:14:17.752Z,60.64
2023-05-18T07:16:47.627Z,59.92
2023-05-18T07:19:17.249Z,59.85
2023-05-18T07:21:49.545Z,59.79
2023-05-18T07:24:19.986Z,59.98
2023-05-18T07:26:49.609Z,60.47
2023-05-18T07:29:20.294Z,60.35
2023-05-18T07:31:50.005Z,59.91
2023-05-18T07:34:19.584Z,59.05
2023-05-18T07:36:51.642Z,59.54
2023-05-18T07:39:28.576Z,60.00
2023-05-18T07:41:58.441Z,59.36
2023-05-18T07:44:27.907Z,59.14
2023-05-18T07:46:57.594Z,57.98
2023-05-18T07:49:27.405Z,59.17
2023-05-18T07:51:59.568Z,58.42
2023-05-18T07:54:29.530Z,58.37
2023-05-18T07:57:00.625Z,59.07
2023-05-18T07:59:30.598Z,58.57
2023-05-18T08:02:00.759Z,58.08
2023-05-18T08:04:31.538Z,59.20
2023-05-18T08:07:05.185Z,60.35
2023-05-18T08:09:34.894Z,59.21
2023-05-18T08:12:04.482Z,59.14
2023-05-18T08:14:34.173Z,58.62
2023-05-18T08:17:03.875Z,58.35
2023-05-18T08:19:33.431Z,58.97
2023-05-18T08:22:05.582Z,58.03
2023-05-18T08:24:35.083Z,57.96
2023-05-18T08:27:04.575Z,56.94
2023-05-18T08:29:34.114Z,57.36
2023-05-18T08:32:03.805Z,57.09
2023-05-18T08:34:33.186Z,57.53
2023-05-18T08:37:05.426Z,58.31
2023-05-18T08:39:34.993Z,57.97
2023-05-18T08:42:05.782Z,58.34
2023-05-18T08:44:42.934Z,58.53
2023-05-18T08:47:13.221Z,58.62
2023-05-18T08:49:44.620Z,58.88
2023-05-18T08:52:21.250Z,57.64
2023-05-18T08:54:53.760Z,58.08
2023-05-18T08:57:26.477Z,57.75
2023-05-18T08:59:57.338Z,59.05
2023-05-18T09:02:27.287Z,57.72
2023-05-18T09:04:58.833Z,57.81
2023-05-18T09:07:32.060Z,56.71
2023-05-18T09:10:03.640Z,57.14
2023-05-18T09:12:35.665Z,57.77
2023-05-18T09:15:06.107Z,57.24
2023-05-18T09:17:35.908Z,55.64
2023-05-18T09:20:07.925Z,55.91
2023-05-18T09:22:40.686Z,57.18
2023-05-18T09:25:12.669Z,56.99
2023-05-18T09:27:42.263Z,57.68
2023-05-18T09:30:15.936Z,59.14
2023-05-18T09:32:46.033Z,57.67
2023-05-18T09:35:15.999Z,56.29
2023-05-18T09:37:48.235Z,55.45
2023-05-18T09:40:19.675Z,56.24
2023-05-18T09:42:49.872Z,54.94
2023-05-18T09:45:23.966Z,56.80
2023-05-18T09:47:54.458Z,56.44
2023-05-18T09:50:25.415Z,55.76
2023-05-18T09:52:57.878Z,55.67
2023-05-18T09:55:27.397Z,55.28
2023-05-18T09:57:59.562Z,55.30
2023-05-18T10:00:29.224Z,57.47
2023-05-18T10:02:59.068Z,57.20
2023-05-18T10:05:34.759Z,55.49
2023-05-18T10:08:09.400Z,55.53
2023-05-18T10:10:44.664Z,54.66
2023-05-18T10:13:19.674Z,55.29
2023-05-18T10:15:54.448Z,55.69
2023-05-18T10:18:26.218Z,54.33
2023-05-18T10:20:59.836Z,54.76
2023-05-18T10:23:35.175Z,55.66
2023-05-18T10:26:10.280Z,54.74
2023-05-18T10:28:44.129Z,54.38
2023-05-18T10:31:14.241Z,53.91
2023-05-18T10:33:44.743Z,52.62
2023-05-18T10:36:15.904Z,54.31
2023-05-18T10:38:50.118Z,53.28
2023-05-18T10:41:24.466Z,52.67
2023-05-18T10:43:56.472Z,52.47
2023-05-18T10:46:27.997Z,54.18
2023-05-18T10:49:00.308Z,53.63
2023-05-18T10:51:33.280Z,53.20
2023-05-18T10:54:15.051Z,53.76
2023-05-18T10:56:48.006Z,52.34
2023-05-18T10:59:18.637Z,53.58
2023-05-18T11:01:49.771Z,53.41
2023-05-18T11:04:25.141Z,53.32
2023-05-18T11:07:00.840Z,52.82
2023-05-18T11:09:33.489Z,53.13
2023-05-18T11:12:04.397Z,53.42
2023-05-18T11:14:35.280Z,53.08
2023-05-18T11:17:22.219Z,52.74
2023-05-18T11:20:16.610Z,53.57
2023-05-18T11:22:49.370Z,54.01
2023-05-18T11:25:45.365Z,53.65
2023-05-18T11:28:16.296Z,53.04
2023-05-18T11:30:54.153Z,54.00
2023-05-18T11:33:30.362Z,53.44
2023-05-18T11:36:07.852Z,51.89
2023-05-18T11:38:52.945Z,53.16
2023-05-18T11:41:43.485Z,52.02
2023-05-18T11:44:20.030Z,53.21
2023-05-18T11:47:02.859Z,52.53
2023-05-18T11:49:34.405Z,52.84
2023-05-18T11:52:11.806Z,52.33
2023-05-18T11:54:43.940Z,52.62
2023-05-18T11:57:18.676Z,52.07
2023-05-18T11:59:50.446Z,51.73
2023-05-18T12:02:25.295Z,51.79
2023-05-18T12:04:57.152Z,52.53
2023-05-18T12:07:28.365Z,53.39
2023-05-18T12:10:01.125Z,53.41
2023-05-18T12:12:34.139Z,51.74
2023-05-18T12:15:05.501Z,53.21
2023-05-18T12:17:42.517Z,52.36
2023-05-18T12:20:14.779Z,52.55
2023-05-18T12:22:45.584Z,52.58
2023-05-18T12:25:16.511Z,52.18
2023-05-18T12:27:50.640Z,52.32
2023-05-18T12:30:21.579Z,51.47
2023-05-18T12:32:53.518Z,51.90
2023-05-18T12:35:25.525Z,51.45
2023-05-18T12:37:56.226Z,51.61
2023-05-18T12:40:26.361Z,52.89
2023-05-18T12:43:00.574Z,52.75
2023-05-18T12:45:32.435Z,53.14
2023-05-18T12:48:07.891Z,52.24
2023-05-18T12:50:38.953Z,52.28
2023-05-18T12:53:08.577Z,51.34
2023-05-18T12:55:39.400Z,51.83
2023-05-18T12:58:17.132Z,51.99
2023-05-18T13:00:48.379Z,51.57
2023-05-18T13:03:22.413Z,51.25
2023-05-18T13:06:05.698Z,51.01
2023-05-18T13:08:37.092Z,51.70
2023-05-18T13:11:13.796Z,51.85
2023-05-18T13:14:06.250Z,52.26
2023-05-18T13:16:37.245Z,52.38
2023-05-18T13:19:09.525Z,52.74
2023-05-18T13:21:39.999Z,52.12
2023-05-18T13:24:10.337Z,51.81
2023-05-18T13:26:41.094Z,51.37
2023-05-18T13:29:13.352Z,50.84
2023-05-18T13:31:43.023Z,51.28
2023-05-18T13:34:13.088Z,51.68
2023-05-18T13:36:42.726Z,51.80
2023-05-18T13:39:12.358Z,51.73
2023-05-18T13:41:42.330Z,52.44
2023-05-18T13:44:16.236Z,51.88
2023-05-18T13:46:45.945Z,51.98
2023-05-18T13:49:15.645Z,52.02
2023-05-18T13:51:45.261Z,52.17
2023-05-18T13:54:14.841Z,52.23
2023-05-18T13:56:44.496Z,52.15
2023-05-18T13:59:19.655Z,51.20
2023-05-18T14:01:49.853Z,51.30
2023-05-18T14:04:19.453Z,50.73
2023-05-18T14:06:49.175Z,51.34
2023-05-18T14:09:18.797Z,50.37
2023-05-18T14:11:48.365Z,50.25
2023-05-18T14:14:20.763Z,50.69
2023-05-18T14:16:50.573Z,50.68
2023-05-18T14:19:20.272Z,51.88
2023-05-18T14:21:49.884Z,50.92
2023-05-18T14:24:20.002Z,50.91
2023-05-18T14:26:51.124Z,50.74
2023-05-18T14:29:23.514Z,50.71
2023-05-18T14:31:53.104Z,51.26
2023-05-18T14:34:22.729Z,51.15
2023-05-18T14:36:52.336Z,50.94
2023-05-18T14:39:21.981Z,51.19
2023-05-18T14:41:51.619Z,51.00
2023-05-18T14:44:23.854Z,51.24
2023-05-18T14:46:53.546Z,50.90
2023-05-18T14:49:23.393Z,51.43
2023-05-18T14:51:53.001Z,51.69
2023-05-18T14:54:22.511Z,52.03
2023-05-18T14:56:52.101Z,51.58
2023-05-18T14:59:24.086Z,50.64
2023-05-18T15:01:53.668Z,50.46
2023-05-18T15:04:25.160Z,51.05
2023-05-18T15:06:54.837Z,50.19
2023-05-18T15:09:26.710Z,50.69
2023-05-18T15:11:56.741Z,51.43
2023-05-18T15:14:28.963Z,51.37
2023-05-18T15:16:58.786Z,51.48
2023-05-18T15:19:28.500Z,51.32
2023-05-18T15:21:58.186Z,51.50
2023-05-18T15:24:27.789Z,51.40
2023-05-18T15:26:57.543Z,52.29
2023-05-18T15:29:29.788Z,52.94
2023-05-18T15:31:59.537Z,52.81
2023-05-18T15:34:29.987Z,52.62
2023-05-18T15:36:59.560Z,53.18
2023-05-18T15:39:29.425Z,52.75
2023-05-18T15:41:59.346Z,52.77
2023-05-18T15:44:31.603Z,52.65
2023-05-18T15:47:01.273Z,52.47
2023-05-18T15:49:30.955Z,52.03
2023-05-18T15:52:00.575Z,52.18
2023-05-18T15:54:30.204Z,52.89
2023-05-18T15:56:59.888Z,53.57
2023-05-18T15:59:32.170Z,53.14
2023-05-18T16:02:05.795Z,52.87
2023-05-18T16:04:35.482Z,53.26
2023-05-18T16:07:05.454Z,53.20
2023-05-18T16:09:35.280Z,53.59
2023-05-18T16:12:04.945Z,53.63
2023-05-18T16:14:37.246Z,53.77
2023-05-18T16:17:07.247Z,53.68
2023-05-18T16:19:37.443Z,54.11
2023-05-18T16:22:09.154Z,53.56
2023-05-18T16:24:40.408Z,53.96
2023-05-18T16:27:09.972Z,54.13
2023-05-18T16:29:42.833Z,54.20
2023-05-18T16:32:12.510Z,53.36
2023-05-18T16:34:42.158Z,53.10
2023-05-18T16:37:11.622Z,52.60
2023-05-18T16:39:40.993Z,52.52
2023-05-18T16:42:12.433Z,52.53
2023-05-18T16:44:44.360Z,52.33
2023-05-18T16:47:14.016Z,52.64
2023-05-18T16:49:45.495Z,52.93
2023-05-18T16:52:16.025Z,52.54
2023-05-18T16:54:45.698Z,52.18
2023-05-18T16:57:15.343Z,52.79
2023-05-18T16:59:47.293Z,52.49
2023-05-18T17:02:18.207Z,52.33
2023-05-18T17:04:49.848Z,52.10
2023-05-18T17:07:19.817Z,52.53
2023-05-18T17:09:49.197Z,52.20
2023-05-18T17:12:18.558Z,52.29
2023-05-18T17:14:52.126Z,52.78
2023-05-18T17:17:22.097Z,51.99
2023-05-18T17:19:51.649Z,51.82
2023-05-18T17:22:21.301Z,51.80
2023-05-18T17:24:50.720Z,51.67
2023-05-18T17:27:20.651Z,51.44
2023-05-18T17:29:52.610Z,51.17
2023-05-18T17:32:22.065Z,51.32
2023-05-18T17:34:51.706Z,50.94
2023-05-18T17:37:22.048Z,51.44
2023-05-18T17:39:51.409Z,50.74
2023-05-18T17:42:20.885Z,51.06
2023-05-18T17:44:52.805Z,51.20
2023-05-18T17:47:24.262Z,51.44
2023-05-18T17:49:53.707Z,51.90
2023-05-18T17:52:23.080Z,51.88
2023-05-18T17:54:52.520Z,52.04
2023-05-18T17:57:23.091Z,51.96
2023-05-18T17:59:55.057Z,52.20
2023-05-18T18:02:24.410Z,52.43
2023-05-18T18:04:53.785Z,52.12
2023-05-18T18:07:23.429Z,52.48
2023-05-18T18:09:52.800Z,52.84
2023-05-18T18:12:22.201Z,52.64
2023-05-18T18:14:51.635Z,52.81
2023-05-18T18:17:23.974Z,52.95
2023-05-18T18:19:53.433Z,53.51
2023-05-18T18:22:22.779Z,53.75
2023-05-18T18:24:52.144Z,53.41
2023-05-18T18:27:21.751Z,53.45
2023-05-18T18:29:51.665Z,53.84
2023-05-18T18:32:23.661Z,53.26
2023-05-18T18:34:53.007Z,53.54
2023-05-18T18:37:22.421Z,54.26
2023-05-18T18:39:52.088Z,54.16
2023-05-18T18:42:21.749Z,53.76
2023-05-18T18:44:53.090Z,53.91
2023-05-18T18:47:25.234Z,54.73
2023-05-18T18:49:54.730Z,54.35
2023-05-18T18:52:24.117Z,54.22
2023-05-18T18:54:53.508Z,54.23
2023-05-18T18:57:22.950Z,54.78
2023-05-18T18:59:52.877Z,54.64
2023-05-18T19:02:24.958Z,54.69
2023-05-18T19:04:54.343Z,55.64
2023-05-18T19:07:23.769Z,54.94
2023-05-18T19:09:53.210Z,55.26
2023-05-18T19:12:22.653Z,55.59
2023-05-18T19:14:52.050Z,55.22
2023-05-18T19:17:21.615Z,55.63
2023-05-18T19:19:53.615Z,55.72
2023-05-18T19:22:23.147Z,55.99
2023-05-18T19:24:52.522Z,55.56
2023-05-18T19:27:22.255Z,55.81
2023-05-18T19:29:52.033Z,55.71
2023-05-18T19:32:21.514Z,55.84
2023-05-18T19:34:53.742Z,56.53
2023-05-18T19:37:23.134Z,55.87
2023-05-18T19:39:52.557Z,56.25
2023-05-18T19:42:22.734Z,55.27
2023-05-18T19:44:52.739Z,55.52
2023-05-18T19:47:22.116Z,55.83
2023-05-18T19:49:54.282Z,55.98
2023-05-18T19:52:23.833Z,55.45
2023-05-18T19:54:53.240Z,55.68
2023-05-18T19:57:22.688Z,55.75
2023-05-18T19:59:52.074Z,55.78
2023-05-18T20:02:21.500Z,55.46
2023-05-18T20:04:51.146Z,55.89
2023-05-18T20:07:24.093Z,55.74
2023-05-18T20:09:54.611Z,55.54
2023-05-18T20:12:24.017Z,55.64
2023-05-18T20:14:53.944Z,55.80
2023-05-18T20:17:24.726Z,55.61
2023-05-18T20:19:54.177Z,55.55
2023-05-18T20:22:26.428Z,55.67
2023-05-18T20:24:56.152Z,55.68
2023-05-18T20:27:27.584Z,55.80
2023-05-18T20:29:57.205Z,55.87
2023-05-18T20:32:27.313Z,55.90
2023-05-18T20:34:56.647Z,55.53
2023-05-18T20:37:28.925Z,56.12
2023-05-18T20:39:58.656Z,55.43
2023-05-18T20:42:39.299Z,55.66
2023-05-18T20:45:10.610Z,55.98
2023-05-18T20:47:42.012Z,56.08
2023-05-18T20:50:13.628Z,56.80
2023-05-18T20:52:45.634Z,56.94
2023-05-18T20:55:15.479Z,56.47
2023-05-18T20:57:49.410Z,56.18
2023-05-18T21:00:20.781Z,56.31
2023-05-18T21:02:50.281Z,56.09
2023-05-18T21:05:20.080Z,55.92
2023-05-18T21:07:53.646Z,55.77
2023-05-18T21:10:23.083Z,56.28
2023-05-18T21:12:52.447Z,56.20
2023-05-18T21:15:21.890Z,55.78
2023-05-18T21:17:51.266Z,55.74
2023-05-18T21:20:20.676Z,56.33
2023-05-18T21:22:52.675Z,56.79
2023-05-18T21:25:22.318Z,57.05
2023-05-18T21:27:51.680Z,56.72
2023-05-18T21:30:22.224Z,57.25
2023-05-18T21:32:52.986Z,56.94
2023-05-18T21:35:22.483Z,57.20
2023-05-18T21:37:54.441Z,57.20
2023-05-18T21:40:27.270Z,56.88
2023-05-18T21:42:57.802Z,57.30
2023-05-18T21:45:27.156Z,57.40
2023-05-18T21:47:56.553Z,57.19
2023-05-18T21:50:26.277Z,57.05
2023-05-18T21:53:03.955Z,57.16
2023-05-18T21:55:33.847Z,56.46
2023-05-18T21:58:03.468Z,56.64
2023-05-18T22:00:33.020Z,56.69
2023-05-18T22:03:02.573Z,56.40
2023-05-18T22:05:32.061Z,56.57
2023-05-18T22:08:04.014Z,56.31
2023-05-18T22:10:33.637Z,56.70
2023-05-18T22:13:05.763Z,56.43
2023-05-18T22:15:36.237Z,56.90
2023-05-18T22:18:06.023Z,56.25
2023-05-18T22:20:36.611Z,56.49
2023-05-18T22:23:09.279Z,56.99
2023-05-18T22:25:38.823Z,56.57
2023-05-18T22:28:08.372Z,56.33
2023-05-18T22:30:37.867Z,56.63
2023-05-18T22:33:08.244Z,56.33
2023-05-18T22:35:38.691Z,56.39
2023-05-18T22:38:10.660Z,56.42
2023-05-18T22:40:40.170Z,56.12
2023-05-18T22:43:09.684Z,56.24
2023-05-18T22:45:39.349Z,56.10
2023-05-18T22:48:08.884Z,56.42
2023-05-18T22:50:38.356Z,56.10
2023-05-18T22:53:10.478Z,56.63
2023-05-18T22:55:40.241Z,56.06
2023-05-18T22:58:09.586Z,55.90
2023-05-18T23:00:39.264Z,55.97
2023-05-18T23:03:08.649Z,55.86
2023-05-18T23:05:41.293Z,56.11
2023-05-18T23:08:14.171Z,55.90
2023-05-18T23:10:44.542Z,56.49
2023-05-18T23:13:16.330Z,56.30
2023-05-18T23:15:47.949Z,55.70
2023-05-18T23:18:17.374Z,55.97
2023-05-18T23:20:46.730Z,56.09
2023-05-18T23:23:18.681Z,55.74
2023-05-18T23:25:48.087Z,56.21
2023-05-18T23:28:20.573Z,55.96
2023-05-18T23:30:49.972Z,55.88
2023-05-18T23:33:19.962Z,56.14
2023-05-18T23:35:50.658Z,56.29
2023-05-18T23:38:28.850Z,56.16
2023-05-18T23:40:59.203Z,56.01
2023-05-18T23:43:29.113Z,55.75
2023-05-18T23:45:59.841Z,56.04
2023-05-18T23:48:30.212Z,56.07
2023-05-18T23:51:03.788Z,56.34
2023-05-18T23:53:37.765Z,56.49
2023-05-18T23:56:09.618Z,56.64
2023-05-18T23:58:39.736Z,56.15
